^^
Grace C. Lehan Memorial Weather Station Historical Data
Daily Summary for December 27, 2021 Units:  Both    English   Metric
Daily Weekly Monthly Yearly
  High: Low: Average:
Temperature: 38.3 °F /  3.5 °C 31.2 °F /  -0.4 °C 34.3 °F /  1.3 °C
Dew Point: 27.1 °F /  -2.7 °C 23.8 °F /  -4.6 °C 25.2 °F /  -3.8 °C
Humidity: 74% 62.3% 69%
Wind Speed: 9mph /  14.5km/h - 1.5mph /  2.4km/h
Wind Gust: 22mph /  35.4km/h - -
Wind- - WNW
Pressure: 30.08 in /  1018.5 hPa 29.99 in /  1015.5 hPa -
Precipitation: 0.00 in /  0 mm    
 
 
Tabular Data for December 27, 2021
Time Temperature Dew Point Pressure Wind Wind Speed Wind Gust Humidity Rainfall Rate (Hourly) solar
00:04 38.3 °F /  3.5 °C 27 °F /  -2.8 °C 30.00in /  1015.8hPa NW 4.8mph /  7.7km/h 14mph /  22.5km/h 63.3% 0.00in /  0mm 0 W/m2
00:09 38.3 °F /  3.5 °C 27 °F /  -2.8 °C 30.00in /  1015.8hPa NW 2.9mph /  4.7km/h 13mph /  20.9km/h 63.4% 0.00in /  0mm 0 W/m2
00:14 38.3 °F /  3.5 °C 27.1 °F /  -2.7 °C 30.00in /  1015.8hPa NW 4.2mph /  6.8km/h 13mph /  20.9km/h 63.7% 0.00in /  0mm 0 W/m2
00:19 38.2 °F /  3.4 °C 27.1 °F /  -2.7 °C 30.00in /  1015.8hPa NNW 2.5mph /  4km/h 14mph /  22.5km/h 64% 0.00in /  0mm 0 W/m2
00:24 38.2 °F /  3.4 °C 27.1 °F /  -2.7 °C 30.00in /  1015.8hPa NW 2.4mph /  3.9km/h 14mph /  22.5km/h 64% 0.00in /  0mm 0 W/m2
00:29 38.1 °F /  3.4 °C 27 °F /  -2.8 °C 30.00in /  1015.8hPa NNW 2.6mph /  4.2km/h 14mph /  22.5km/h 64% 0.00in /  0mm 0 W/m2
00:34 38 °F /  3.3 °C 26.9 °F /  -2.8 °C 30.00in /  1015.8hPa NW 3.8mph /  6.1km/h 14mph /  22.5km/h 64% 0.00in /  0mm 0 W/m2
00:39 37.8 °F /  3.2 °C 26.7 °F /  -2.9 °C 30.00in /  1015.8hPa NW 5mph /  8km/h 16mph /  25.7km/h 63.8% 0.00in /  0mm 0 W/m2
00:44 37.7 °F /  3.2 °C 26.2 °F /  -3.2 °C 30.00in /  1015.8hPa NNW 4.2mph /  6.8km/h 16mph /  25.7km/h 62.8% 0.00in /  0mm 0 W/m2
00:49 37.6 °F /  3.1 °C 25.9 °F /  -3.4 °C 30.01in /  1016.1hPa NW 6mph /  9.7km/h 16mph /  25.7km/h 62.3% 0.00in /  0mm 0 W/m2
00:54 37.5 °F /  3.1 °C 25.9 °F /  -3.4 °C 30.01in /  1016.1hPa NNW 1.8mph /  2.9km/h 16mph /  25.7km/h 62.6% 0.00in /  0mm 0 W/m2
00:59 37.4 °F /  3 °C 26 °F /  -3.3 °C 30.01in /  1016.1hPa NW 2.4mph /  3.9km/h 16mph /  25.7km/h 63% 0.00in /  0mm 0 W/m2
01:04 37.3 °F /  2.9 °C 25.9 °F /  -3.4 °C 30.01in /  1016.1hPa NNW 2.2mph /  3.5km/h 16mph /  25.7km/h 63% 0.00in /  0mm 0 W/m2
01:09 37.2 °F /  2.9 °C 25.8 °F /  -3.4 °C 30.01in /  1016.1hPa NW 1.9mph /  3.1km/h 10mph /  16.1km/h 63% 0.00in /  0mm 0 W/m2
01:14 37.1 °F /  2.8 °C 25.7 °F /  -3.5 °C 30.02in /  1016.5hPa NNW 1.8mph /  2.9km/h 11mph /  17.7km/h 63.1% 0.00in /  0mm 0 W/m2
01:19 37 °F /  2.8 °C 25.9 °F /  -3.4 °C 30.02in /  1016.5hPa NW 2.8mph /  4.5km/h 11mph /  17.7km/h 63.8% 0.00in /  0mm 0 W/m2
01:24 36.9 °F /  2.7 °C 25.9 °F /  -3.4 °C 30.02in /  1016.5hPa NW 3mph /  4.8km/h 12mph /  19.3km/h 64% 0.00in /  0mm 0 W/m2
01:29 36.8 °F /  2.7 °C 25.8 °F /  -3.4 °C 30.02in /  1016.5hPa NW 2.6mph /  4.2km/h 12mph /  19.3km/h 64% 0.00in /  0mm 0 W/m2
01:34 36.8 °F /  2.7 °C 25.8 °F /  -3.4 °C 30.03in /  1016.8hPa NW 6.2mph /  10km/h 22mph /  35.4km/h 64% 0.00in /  0mm 0 W/m2
01:39 36.7 °F /  2.6 °C 25.7 °F /  -3.5 °C 30.03in /  1016.8hPa NNW 6.1mph /  9.8km/h 22mph /  35.4km/h 64% 0.00in /  0mm 0 W/m2
01:44 36.8 °F /  2.7 °C 25.8 °F /  -3.4 °C 30.03in /  1016.8hPa NW 6.8mph /  10.9km/h 22mph /  35.4km/h 64.2% 0.00in /  0mm 0 W/m2
01:49 36.8 °F /  2.7 °C 25.9 °F /  -3.4 °C 30.03in /  1016.8hPa NNW 4.3mph /  6.9km/h 22mph /  35.4km/h 64.4% 0.00in /  0mm 0 W/m2
01:54 36.8 °F /  2.7 °C 26.1 °F /  -3.3 °C 30.03in /  1016.8hPa NNW 4.6mph /  7.4km/h 22mph /  35.4km/h 65% 0.00in /  0mm 0 W/m2
01:59 36.7 °F /  2.6 °C 26.1 °F /  -3.3 °C 30.03in /  1016.8hPa NW 2.7mph /  4.3km/h 22mph /  35.4km/h 65% 0.00in /  0mm 0 W/m2
02:04 36.6 °F /  2.6 °C 26 °F /  -3.3 °C 30.03in /  1016.8hPa NW 3.1mph /  5km/h 22mph /  35.4km/h 65% 0.00in /  0mm 0 W/m2
02:09 36.5 °F /  2.5 °C 25.9 °F /  -3.4 °C 30.03in /  1016.8hPa NNW 3.8mph /  6.1km/h 12mph /  19.3km/h 65% 0.00in /  0mm 0 W/m2
02:14 36.5 °F /  2.5 °C 25.8 °F /  -3.4 °C 30.03in /  1016.8hPa NNW 2.5mph /  4km/h 12mph /  19.3km/h 65% 0.00in /  0mm 0 W/m2
02:19 36.4 °F /  2.4 °C 26.1 °F /  -3.3 °C 30.03in /  1016.8hPa NW 4.9mph /  7.9km/h 13mph /  20.9km/h 66% 0.00in /  0mm 0 W/m2
02:24 36.4 °F /  2.4 °C 26.1 °F /  -3.3 °C 30.03in /  1016.8hPa NNW 3.3mph /  5.3km/h 13mph /  20.9km/h 66% 0.00in /  0mm 0 W/m2
02:29 36.4 °F /  2.4 °C 26.1 °F /  -3.3 °C 30.03in /  1016.8hPa NW 1.3mph /  2.1km/h 13mph /  20.9km/h 66% 0.00in /  0mm 0 W/m2
02:34 36.3 °F /  2.4 °C 26.1 °F /  -3.3 °C 30.04in /  1017.2hPa NNW 3.1mph /  5km/h 13mph /  20.9km/h 66% 0.00in /  0mm 0 W/m2
02:39 36.3 °F /  2.4 °C 26.3 °F /  -3.2 °C 30.04in /  1017.2hPa NNW 0.8mph /  1.3km/h 11mph /  17.7km/h 66.7% 0.00in /  0mm 0 W/m2
02:44 36.3 °F /  2.4 °C 26.4 °F /  -3.1 °C 30.04in /  1017.2hPa NW 2.9mph /  4.7km/h 11mph /  17.7km/h 67% 0.00in /  0mm 0 W/m2
02:49 36.3 °F /  2.4 °C 26.4 °F /  -3.1 °C 30.04in /  1017.2hPa NW 2.3mph /  3.7km/h 11mph /  17.7km/h 67% 0.00in /  0mm 0 W/m2
02:54 36.2 °F /  2.3 °C 26.3 °F /  -3.2 °C 30.04in /  1017.2hPa NW 5.5mph /  8.9km/h 15mph /  24.1km/h 67% 0.00in /  0mm 0 W/m2
02:59 36.2 °F /  2.3 °C 26.3 °F /  -3.2 °C 30.03in /  1016.8hPa NW 2.9mph /  4.7km/h 15mph /  24.1km/h 67% 0.00in /  0mm 0 W/m2
03:04 36.1 °F /  2.3 °C 26.6 °F /  -3 °C 30.03in /  1016.8hPa NW 2mph /  3.2km/h 15mph /  24.1km/h 68% 0.00in /  0mm 0 W/m2
03:09 36.1 °F /  2.3 °C 26.6 °F /  -3 °C 30.03in /  1016.8hPa NW 2.7mph /  4.3km/h 9mph /  14.5km/h 68% 0.00in /  0mm 0 W/m2
03:14 36 °F /  2.2 °C 26.3 °F /  -3.2 °C 30.03in /  1016.8hPa NW 2mph /  3.2km/h 10mph /  16.1km/h 67.5% 0.00in /  0mm 0 W/m2
03:19 35.9 °F /  2.2 °C 26.2 °F /  -3.2 °C 30.03in /  1016.8hPa NNW 2.2mph /  3.5km/h 10mph /  16.1km/h 67.5% 0.00in /  0mm 0 W/m2
03:24 35.8 °F /  2.1 °C 26.3 °F /  -3.2 °C 30.02in /  1016.5hPa NNW 2.3mph /  3.7km/h 10mph /  16.1km/h 68% 0.00in /  0mm 0 W/m2
03:29 35.6 °F /  2 °C 26.1 °F /  -3.3 °C 30.02in /  1016.5hPa NNW 2mph /  3.2km/h 10mph /  16.1km/h 68% 0.00in /  0mm 0 W/m2
03:34 35.4 °F /  1.9 °C 25.9 °F /  -3.4 °C 30.02in /  1016.5hPa NW 1.7mph /  2.7km/h 10mph /  16.1km/h 68% 0.00in /  0mm 0 W/m2
03:39 35.2 °F /  1.8 °C 25.7 °F /  -3.5 °C 30.02in /  1016.5hPa NNW 3.1mph /  5km/h 10mph /  16.1km/h 68% 0.00in /  0mm 0 W/m2
03:44 35 °F /  1.7 °C 25.5 °F /  -3.6 °C 30.01in /  1016.1hPa NNW 2.1mph /  3.4km/h 10mph /  16.1km/h 68% 0.00in /  0mm 0 W/m2
03:49 34.8 °F /  1.6 °C 25.4 °F /  -3.7 °C 30.01in /  1016.1hPa NNW 2.3mph /  3.7km/h 10mph /  16.1km/h 68% 0.00in /  0mm 0 W/m2
03:54 34.7 °F /  1.5 °C 25.1 °F /  -3.8 °C 30.01in /  1016.1hPa NW 3.4mph /  5.5km/h 10mph /  16.1km/h 67.7% 0.00in /  0mm 0 W/m2
03:59 34.5 °F /  1.4 °C 24.9 °F /  -3.9 °C 30.01in /  1016.1hPa NW 1.8mph /  2.9km/h 13mph /  20.9km/h 67.4% 0.00in /  0mm 0 W/m2
04:00 34.5 °F /  1.4 °C 24.7 °F /  -4.1 °C 30.01in /  1016.1hPa NNW 9mph /  14.5km/h 13mph /  20.9km/h 67% 0.00in /  0mm 0 W/m2
04:09 34.3 °F /  1.3 °C 24.9 °F /  -3.9 °C 30.02in /  1016.5hPa NW 0.7mph /  1.1km/h 3mph /  4.8km/h 68% 0.00in /  0mm 0 W/m2
04:14 34.2 °F /  1.2 °C 24.7 °F /  -4.1 °C 30.02in /  1016.5hPa NW 1mph /  1.6km/h 5mph /  8km/h 68% 0.00in /  0mm 0 W/m2
04:19 34.1 °F /  1.2 °C 24.6 °F /  -4.1 °C 30.02in /  1016.5hPa NW 1.1mph /  1.8km/h 5mph /  8km/h 68% 0.00in /  0mm 0 W/m2
04:24 33.9 °F /  1.1 °C 24.5 °F /  -4.2 °C 30.03in /  1016.8hPa NW 0.3mph /  0.5km/h 5mph /  8km/h 68% 0.00in /  0mm 0 W/m2
04:29 33.8 °F /  1 °C 24.5 °F /  -4.2 °C 30.04in /  1017.2hPa NW 0.1mph /  0.2km/h 5mph /  8km/h 68.5% 0.00in /  0mm 0 W/m2
04:34 33.7 °F /  0.9 °C 24.5 °F /  -4.2 °C 30.04in /  1017.2hPa NW 0.3mph /  0.5km/h 5mph /  8km/h 68.7% 0.00in /  0mm 0 W/m2
04:39 33.5 °F /  0.8 °C 24.5 °F /  -4.2 °C 30.04in /  1017.2hPa NW 0.1mph /  0.2km/h 3mph /  4.8km/h 69% 0.00in /  0mm 0 W/m2
04:44 33.4 °F /  0.8 °C 24.3 °F /  -4.3 °C 30.04in /  1017.2hPa NW 0.2mph /  0.3km/h 3mph /  4.8km/h 69% 0.00in /  0mm 0 W/m2
04:49 33.2 °F /  0.7 °C 24.3 °F /  -4.3 °C 30.04in /  1017.2hPa Calm   3mph /  4.8km/h 69.4% 0.00in /  0mm 0 W/m2
04:54 33 °F /  0.6 °C 24.3 °F /  -4.3 °C 30.05in /  1017.5hPa NW 0.2mph /  0.3km/h 3mph /  4.8km/h 70% 0.00in /  0mm 0 W/m2
04:59 32.9 °F /  0.5 °C 24.2 °F /  -4.3 °C 30.05in /  1017.5hPa NW 0.9mph /  1.4km/h 3mph /  4.8km/h 70% 0.00in /  0mm 0 W/m2
05:04 32.8 °F /  0.4 °C 24.4 °F /  -4.2 °C 30.05in /  1017.5hPa Calm   3mph /  4.8km/h 71% 0.00in /  0mm 0 W/m2
05:09 32.6 °F /  0.3 °C 24.3 °F /  -4.3 °C 30.04in /  1017.2hPa Calm     71% 0.00in /  0mm 0 W/m2
05:14 32.5 °F /  0.3 °C 24.1 °F /  -4.4 °C 30.05in /  1017.5hPa Calm     71% 0.00in /  0mm 0 W/m2
05:19 32.3 °F /  0.2 °C 24 °F /  -4.4 °C 30.05in /  1017.5hPa Calm     71% 0.00in /  0mm 0 W/m2
05:24 32.2 °F /  0.1 °C 23.9 °F /  -4.5 °C 30.05in /  1017.5hPa Calm     71% 0.00in /  0mm 0 W/m2
05:29 32 °F /  0 °C 23.9 °F /  -4.5 °C 30.05in /  1017.5hPa Calm     71.7% 0.00in /  0mm 0 W/m2
05:34 31.9 °F /  -0.1 °C 24.2 °F /  -4.3 °C 30.05in /  1017.5hPa Calm     72.7% 0.00in /  0mm 0 W/m2
05:39 31.8 °F /  -0.1 °C 23.8 °F /  -4.6 °C 30.05in /  1017.5hPa Calm     72% 0.00in /  0mm 0 W/m2
05:44 31.6 °F /  -0.2 °C 23.9 °F /  -4.5 °C 30.04in /  1017.2hPa Calm     72.7% 0.00in /  0mm 0 W/m2
05:49 31.5 °F /  -0.3 °C 23.9 °F /  -4.5 °C 30.05in /  1017.5hPa Calm     73% 0.00in /  0mm 0 W/m2
05:54 31.4 °F /  -0.3 °C 24 °F /  -4.4 °C 30.05in /  1017.5hPa Calm     73.5% 0.00in /  0mm 0 W/m2
05:59 31.4 °F /  -0.3 °C 24 °F /  -4.4 °C 30.05in /  1017.5hPa Calm     74% 0.00in /  0mm 0 W/m2
06:04 31.3 °F /  -0.4 °C 23.9 °F /  -4.5 °C 30.05in /  1017.5hPa Calm     74% 0.00in /  0mm 0 W/m2
06:09 31.2 °F /  -0.4 °C 23.9 °F /  -4.5 °C 30.05in /  1017.5hPa NW 0.1mph /  0.2km/h 2mph /  3.2km/h 74% 0.00in /  0mm 0 W/m2
06:14 31.2 °F /  -0.4 °C 23.9 °F /  -4.5 °C 30.05in /  1017.5hPa Calm   2mph /  3.2km/h 74% 0.00in /  0mm 0 W/m2
06:19 31.2 °F /  -0.4 °C 23.9 °F /  -4.5 °C 30.05in /  1017.5hPa Calm   2mph /  3.2km/h 74% 0.00in /  0mm 0 W/m2
06:24 31.3 °F /  -0.4 °C 24 °F /  -4.4 °C 30.05in /  1017.5hPa NW 0.1mph /  0.2km/h 2mph /  3.2km/h 74% 0.00in /  0mm 0 W/m2
06:29 31.4 °F /  -0.3 °C 24.1 °F /  -4.4 °C 30.06in /  1017.8hPa NW 0.2mph /  0.3km/h 2mph /  3.2km/h 74% 0.00in /  0mm 0 W/m2
06:34 31.4 °F /  -0.3 °C 24.1 °F /  -4.4 °C 30.06in /  1017.8hPa Calm   2mph /  3.2km/h 74% 0.00in /  0mm 0 W/m2
06:39 31.4 °F /  -0.3 °C 24.1 °F /  -4.4 °C 30.05in /  1017.5hPa NW 0.2mph /  0.3km/h 2mph /  3.2km/h 74% 0.00in /  0mm 0 W/m2
06:44 31.5 °F /  -0.3 °C 24.2 °F /  -4.3 °C 30.05in /  1017.5hPa NW 0.4mph /  0.6km/h 3mph /  4.8km/h 74% 0.00in /  0mm 0 W/m2
06:49 31.5 °F /  -0.3 °C 24.2 °F /  -4.3 °C 30.05in /  1017.5hPa NW 0.1mph /  0.2km/h 3mph /  4.8km/h 74% 0.00in /  0mm 0 W/m2
06:54 31.5 °F /  -0.3 °C 24.2 °F /  -4.3 °C 30.05in /  1017.5hPa NW 1.3mph /  2.1km/h 6mph /  9.7km/h 74% 0.00in /  0mm 0 W/m2
06:59 31.6 °F /  -0.2 °C 24.1 °F /  -4.4 °C 30.05in /  1017.5hPa NW 0.1mph /  0.2km/h 6mph /  9.7km/h 73.5% 0.00in /  0mm 0 W/m2
07:04 31.7 °F /  -0.2 °C 24.1 °F /  -4.4 °C 30.06in /  1017.8hPa NW 0.2mph /  0.3km/h 6mph /  9.7km/h 73.2% 0.00in /  0mm 0 W/m2
07:09 31.7 °F /  -0.2 °C 24.2 °F /  -4.3 °C 30.06in /  1017.8hPa NW 0.3mph /  0.5km/h 3mph /  4.8km/h 73.3% 0.00in /  0mm 5 W/m2
07:14 31.8 °F /  -0.1 °C 24.2 °F /  -4.3 °C 30.06in /  1017.8hPa NW 0.2mph /  0.3km/h 3mph /  4.8km/h 73.2% 0.00in /  0mm 5 W/m2
07:19 31.9 °F /  -0.1 °C 24.2 °F /  -4.3 °C 30.06in /  1017.8hPa NW 0.2mph /  0.3km/h 3mph /  4.8km/h 73% 0.00in /  0mm 0 W/m2
07:24 31.9 °F /  -0.1 °C 24.2 °F /  -4.3 °C 30.06in /  1017.8hPa NW 0.5mph /  0.8km/h 4mph /  6.4km/h 73% 0.00in /  0mm 5 W/m2
07:29 31.9 °F /  -0.1 °C 24.4 °F /  -4.2 °C 30.07in /  1018.2hPa NW 1.4mph /  2.3km/h 5mph /  8km/h 73.4% 0.00in /  0mm 9 W/m2
07:34 31.9 °F /  -0.1 °C 24.6 °F /  -4.1 °C 30.07in /  1018.2hPa NW 0.2mph /  0.3km/h 5mph /  8km/h 74% 0.00in /  0mm 11 W/m2
07:39 31.9 °F /  -0.1 °C 24.3 °F /  -4.3 °C 30.08in /  1018.5hPa Calm   3mph /  4.8km/h 73.1% 0.00in /  0mm 14 W/m2
07:44 32 °F /  0 °C 24.3 °F /  -4.3 °C 30.08in /  1018.5hPa NW 0.3mph /  0.5km/h 3mph /  4.8km/h 73% 0.00in /  0mm 19 W/m2
07:49 32 °F /  0 °C 24.3 °F /  -4.3 °C 30.08in /  1018.5hPa NW 0.7mph /  1.1km/h 3mph /  4.8km/h 73% 0.00in /  0mm 23 W/m2
07:54 32.1 °F /  0.1 °C 24.4 °F /  -4.2 °C 30.08in /  1018.5hPa NW 0.2mph /  0.3km/h 3mph /  4.8km/h 73% 0.00in /  0mm 25 W/m2
07:59 32.1 °F /  0.1 °C 24.5 °F /  -4.2 °C 30.08in /  1018.5hPa NW 0.2mph /  0.3km/h 3mph /  4.8km/h 73% 0.00in /  0mm 32 W/m2
08:09 32.3 °F /  0.2 °C 24.6 °F /  -4.1 °C 30.07in /  1018.2hPa NW 0.7mph /  1.1km/h 4mph /  6.4km/h 73% 0.00in /  0mm 33 W/m2
08:14 32.4 °F /  0.2 °C 24.5 °F /  -4.2 °C 30.07in /  1018.2hPa NW 0.3mph /  0.5km/h 4mph /  6.4km/h 72.5% 0.00in /  0mm 37 W/m2
08:19 32.5 °F /  0.3 °C 24.6 °F /  -4.1 °C 30.07in /  1018.2hPa Calm   4mph /  6.4km/h 72.6% 0.00in /  0mm 39 W/m2
08:24 32.6 °F /  0.3 °C 24.9 °F /  -3.9 °C 30.07in /  1018.2hPa Calm   4mph /  6.4km/h 73% 0.00in /  0mm 44 W/m2
08:29 32.6 °F /  0.3 °C 24.9 °F /  -3.9 °C 30.07in /  1018.2hPa Calm   4mph /  6.4km/h 73% 0.00in /  0mm 46 W/m2
08:34 32.7 °F /  0.4 °C 25 °F /  -3.9 °C 30.07in /  1018.2hPa NW 0.6mph /  1km/h 5mph /  8km/h 72.9% 0.00in /  0mm 49 W/m2
08:39 32.8 °F /  0.4 °C 24.8 °F /  -4 °C 30.07in /  1018.2hPa NW 0.3mph /  0.5km/h 5mph /  8km/h 72% 0.00in /  0mm 54 W/m2
08:44 32.9 °F /  0.5 °C 24.9 °F /  -3.9 °C 30.07in /  1018.2hPa NNW 1.1mph /  1.8km/h 5mph /  8km/h 72% 0.00in /  0mm 62 W/m2
08:49 33 °F /  0.6 °C 24.9 °F /  -3.9 °C 30.06in /  1017.8hPa NNE 1.3mph /  2.1km/h 5mph /  8km/h 72% 0.00in /  0mm 58 W/m2
08:54 33 °F /  0.6 °C 25 °F /  -3.9 °C 30.05in /  1017.5hPa North 1mph /  1.6km/h 5mph /  8km/h 72% 0.00in /  0mm 58 W/m2
08:59 33 °F /  0.6 °C 24.8 °F /  -4 °C 30.06in /  1017.8hPa NNE 1.7mph /  2.7km/h 6mph /  9.7km/h 71.5% 0.00in /  0mm 97 W/m2
09:04 33 °F /  0.6 °C 24.9 °F /  -3.9 °C 30.05in /  1017.5hPa NE 1.4mph /  2.3km/h 6mph /  9.7km/h 71.9% 0.00in /  0mm 97 W/m2
09:09 33 °F /  0.6 °C 25 °F /  -3.9 °C 30.07in /  1018.2hPa North 1.7mph /  2.7km/h 8mph /  12.9km/h 72% 0.00in /  0mm 70 W/m2
09:14 33.1 °F /  0.6 °C 25.1 °F /  -3.8 °C 30.08in /  1018.5hPa NNW 0.7mph /  1.1km/h 8mph /  12.9km/h 72.1% 0.00in /  0mm 69 W/m2
09:19 33.1 °F /  0.6 °C 25.1 °F /  -3.8 °C 30.08in /  1018.5hPa NNW 0.9mph /  1.4km/h 8mph /  12.9km/h 72.1% 0.00in /  0mm 56 W/m2
09:24 33.1 °F /  0.6 °C 25.1 °F /  -3.8 °C 30.08in /  1018.5hPa NNW 0.9mph /  1.4km/h 8mph /  12.9km/h 72% 0.00in /  0mm 65 W/m2
09:27 33 °F /  0.6 °C 25 °F /  -3.9 °C 30.08in /  1018.5hPa NNW 0.4mph /  0.6km/h 8mph /  12.9km/h 72% 0.00in /  0mm 77 W/m2
10:30 33.3 °F /  0.7 °C 25.3 °F /  -3.7 °C 30.08in /  1018.5hPa Calm   4mph /  6.4km/h 72% 0.00in /  0mm 51 W/m2
11:00 33.4 °F /  0.8 °C 25.4 °F /  -3.7 °C 30.07in /  1018.2hPa Calm   5mph /  8km/h 72% 0.00in /  0mm 60 W/m2
11:30 33.8 °F /  1 °C 25.1 °F /  -3.8 °C 30.05in /  1017.5hPa Calm   3mph /  4.8km/h 70% 0.00in /  0mm 122 W/m2
12:04 34.3 °F /  1.3 °C 25.5 °F /  -3.6 °C 30.05in /  1017.5hPa Calm   3mph /  4.8km/h 70% 0.00in /  0mm 123 W/m2
12:09 34.3 °F /  1.3 °C 25.6 °F /  -3.6 °C 29.99in /  1015.5hPa North 0.3mph /  0.5km/h 3mph /  4.8km/h 70% 0.00in /  0mm 149 W/m2
12:14 34.5 °F /  1.4 °C 25.9 °F /  -3.4 °C 30.00in /  1015.8hPa North 0.5mph /  0.8km/h 3mph /  4.8km/h 70.6% 0.00in /  0mm 181 W/m2
12:19 34.8 °F /  1.6 °C 26.4 °F /  -3.1 °C 30.00in /  1015.8hPa North 0.1mph /  0.2km/h 3mph /  4.8km/h 71% 0.00in /  0mm 181 W/m2
12:24 35 °F /  1.7 °C 26 °F /  -3.3 °C 30.00in /  1015.8hPa North 0.8mph /  1.3km/h 3mph /  4.8km/h 69.4% 0.00in /  0mm 148 W/m2
12:29 35 °F /  1.7 °C 26 °F /  -3.3 °C 29.99in /  1015.5hPa NNE 0.3mph /  0.5km/h 3mph /  4.8km/h 69.3% 0.00in /  0mm 151 W/m2
12:34 35.1 °F /  1.7 °C 26.4 °F /  -3.1 °C 30.00in /  1015.8hPa NNE 1.1mph /  1.8km/h 4mph /  6.4km/h 70.3% 0.00in /  0mm 144 W/m2
12:39 35.2 °F /  1.8 °C 26.4 °F /  -3.1 °C 30.00in /  1015.8hPa NNE 1.2mph /  1.9km/h 5mph /  8km/h 69.9% 0.00in /  0mm 114 W/m2
12:44 35.3 °F /  1.8 °C 26.2 °F /  -3.2 °C 30.00in /  1015.8hPa NNE 1mph /  1.6km/h 6mph /  9.7km/h 69.1% 0.00in /  0mm 123 W/m2
12:49 35.4 °F /  1.9 °C 26.5 °F /  -3.1 °C 30.00in /  1015.8hPa NE 1.6mph /  2.6km/h 6mph /  9.7km/h 69.6% 0.00in /  0mm 120 W/m2
12:53 35.3 °F /  1.8 °C 26.2 °F /  -3.2 °C 30.01in /  1016.1hPa NE 0.6mph /  1km/h 6mph /  9.7km/h 69% 0.00in /  0mm 100 W/m2
Hartford County Weather
Compliments of Weather Underground - 2 mb